Stacja Pogody Warszawa Praga Północ 


Stacja Pogody
Warszawa Praga Północ

 Szerokość N 52° 15 '43"    Długość E 21° 01' 22"    Wysokość 89 m n.p.m.


Wschód Słońca 07:27 Górowanie Słońca 11:48 Zachód Słońca 16:08 wodnik
Data juliańska 2457048.470 Odległość Słońca 147284702 km Średn. kątowa Słońca 0,325°
Wschód Księżyca 09:38 Zachód Księżyca 23:04 Wiek Księżyca 6 dni Moon
Widoczność Księżyca 36,25% Odległość Księżyca 368252 km Średn. kątowa Księżyca 0,324°
Dzień krótszy od najdłuższego o: 08:07 Długość dnia 08:40 Imieniny Pawła, Miłosza, Elwiry




Warunki pogodowe uaktualnione 25-01-2015, o godzinie 23:00
Temperatura -1.1 °C → Temperatura odczuwalna -8.0 °C
Punkt rosy -1.2 °C Humidex -3.6 °C
Deszcz na godzinę 0.0 mm Wilgotność względna 99% →
Prędkość wiatru (średnia) 7 km/h → Prędkość wiatru (podmuch) 24 km/h
Kierunek wiatru SSE Skala Beaufort'a 4
Średni przepływ wiatru w ciągu ostatniej godziny 7 km
Ciśnienie względne  1022 hPa Trend ciśnienia powolny wzrost
Ciśnienie bezwzględne  1010 hPa Podstawa chmur 106.7 m
METAR EPWA 252200Z 31007KT 5000
TAF TAF EPWA 251730Z 2518/2618 32007KT 5000 BR BKN008





 a

Valid XHTML 1.0 Transitional Valid CSS!